createdAt,value
2023-05-22T00:15:13.566Z,7.80
2023-05-22T00:33:51.142Z,7.70
2023-05-22T00:52:29.052Z,5.80
2023-05-22T01:29:46.826Z,6.40
2023-05-22T01:48:23.930Z,5.10
2023-05-22T02:07:03.260Z,6.60
2023-05-22T02:25:41.238Z,7.80
2023-05-22T03:03:01.270Z,8.30
2023-05-22T03:21:41.428Z,7.00
2023-05-22T03:40:21.801Z,11.80
2023-05-22T03:59:02.668Z,7.90
2023-05-22T04:17:42.830Z,6.90
2023-05-22T04:55:05.920Z,6.50
2023-05-22T05:13:46.148Z,7.50
2023-05-22T05:32:27.200Z,7.70
2023-05-22T05:51:08.406Z,8.40
2023-05-22T06:09:47.197Z,7.90
2023-05-22T06:28:28.474Z,8.30
2023-05-22T06:47:10.626Z,6.60
2023-05-22T07:24:34.354Z,5.50
2023-05-22T07:43:17.238Z,6.50
2023-05-22T08:01:59.561Z,5.70
2023-05-22T08:20:41.320Z,5.30
2023-05-22T08:39:24.793Z,5.70
2023-05-22T09:35:30.265Z,6.60
2023-05-22T09:54:12.285Z,4.30
2023-05-22T10:12:56.611Z,5.20
2023-05-22T10:31:48.273Z,3.90
2023-05-22T10:50:37.389Z,2.30
2023-05-22T11:09:26.455Z,2.80
2023-05-22T11:46:57.761Z,2.90
2023-05-22T12:05:40.335Z,3.20
2023-05-22T12:24:25.844Z,3.20
2023-05-22T12:43:01.631Z,2.20
2023-05-22T13:01:49.692Z,2.80
2023-05-22T13:39:16.175Z,1.70
2023-05-22T13:57:53.800Z,3.10
2023-05-22T14:16:35.536Z,1.60
2023-05-22T14:35:16.031Z,2.10
2023-05-22T14:53:58.961Z,1.40
2023-05-22T15:12:39.429Z,1.20
2023-05-22T15:31:19.390Z,1.70
2023-05-22T16:26:58.209Z,3.10
2023-05-22T16:45:39.634Z,2.40
2023-05-22T17:04:13.358Z,2.30
2023-05-22T17:22:45.188Z,3.50
2023-05-22T17:41:20.585Z,3.00
2023-05-22T18:18:35.395Z,3.00
2023-05-22T18:37:11.927Z,4.70
2023-05-22T18:55:52.145Z,3.90
2023-05-22T19:14:18.516Z,5.20
2023-05-22T19:32:56.189Z,5.30
2023-05-22T19:51:32.976Z,5.10
2023-05-22T20:47:28.426Z,4.00
2023-05-22T21:06:06.583Z,6.80
2023-05-22T21:24:44.319Z,7.80
2023-05-22T21:43:22.756Z,5.60
2023-05-22T22:02:02.346Z,5.80
2023-05-22T22:20:45.509Z,3.20
2023-05-22T22:39:18.609Z,7.70
2023-05-22T23:16:36.736Z,7.70
2023-05-22T23:35:14.348Z,6.20
2023-05-22T23:53:53.394Z,6.70
